Logo AVAMET
Benvolgut visitant, si us plau, ingressa Recuperar contrasenya

Montserrat Casadalt

Dades diàries. Acumulats / Últims 30 dies disponibles

Data Temperatura (°C) Humitat rel. (%) Pressió rel. (hPa) Vent (km/h) Precipitació
Mínima Mitjana Màxima Amplitud
tèrmica
Mínima Mitjana Màxima Mínima Mitjana Màxima Predom. Mitjana Ràfega
màxima
Total
(mm)
Índex-n
Mínima Mitjana Màxima Mínima Mitjana Màxima n
0 a 1
P0 max
mm 5'
Dades mensuals acumulades fins l'últim dia disponible
08/2019 18,3 21,8 25,1 26,1 26,3 32,0 41,7 23,4 15 66 95 1.006 1.013 1.019   7,5 51,5 3,2
Dades anuals acumulades fins l'últim dia disponible
2019 1,6 13,1 25,1 17,6 10,9 23,5 41,7 40,1 11 59 100 991 1.015 1.034   8,5 83,7 231,8
Últims 30 dies disponibles
22-08-2019 18,3     23,6     29,9 11,6 31 62 88 1.017 1.018 1.019 SSE 7,9 32,2 0,0
21-08-2019 20,1     22,4     26,3 6,2 53 77 95 1.017 1.018 1.019 NE 8,4 27,4 3,2
20-08-2019 22,7     24,2     28,2 5,5 53 72 87 1.012 1.015 1.019 ENE 15,0 51,5 0,0
19-08-2019 22,9     25,6     29,8 6,9 57 79 92 1.010 1.012 1.014 ESE 8,2 33,8 0,0
18-08-2019 22,3     26,8     32,7 10,4 49 75 92 1.007 1.010 1.012 NE 7,7 33,8 0,0
17-08-2019 21,3     25,7     31,2 9,9 52 75 91 1.010 1.013 1.015 W 8,0 33,8 0,0
16-08-2019 22,2     25,5     30,9 8,7 51 71 84 1.013 1.015 1.017 NNW 8,9 33,8 0,0
15-08-2019 20,8     25,7     31,1 10,3 47 66 81 1.014 1.015 1.016 ESE 7,2 32,2 0,0
14-08-2019 20,6     25,6     31,2 10,6 44 64 84 1.014 1.016 1.018 NW 7,9 33,8 0,0
13-08-2019 21,8     23,6     27,7 5,9 42 62 80 1.015 1.016 1.018 ESE 7,7 33,8 0,0
12-08-2019 21,4     25,3     29,9 8,5 34 63 92 1.010 1.012 1.016 SE 8,5 35,4 0,0
11-08-2019 24,2     27,2     33,1 8,9 51 76 92 1.009 1.011 1.013 ESE 5,0 33,8 0,0
10-08-2019 25,1     29,6     34,3 9,2 28 50 86 1.010 1.012 1.014 W 10,5 33,8 0,0
09-08-2019 22,7     32,4     41,7 19,0 15 34 74 1.008 1.009 1.011 W 12,1 49,9 0,0
08-08-2019 23,4     29,4     39,3 15,9 17 50 91 1.008 1.010 1.011 W 9,3 35,4 0,0
07-08-2019 20,6     27,7     39,9 19,3 15 64 92 1.006 1.008 1.011 W 6,0 37,0 0,0
06-08-2019 23,5     27,1     32,0 8,5 55 73 89 1.007 1.009 1.012 SSE 3,9 29,0 0,0
05-08-2019 21,7     25,9     31,3 9,6 52 73 90 1.010 1.012 1.013 ESE 4,5 27,4 0,0
04-08-2019 21,0     25,7     31,5 10,5 45 66 84 1.010 1.011 1.013 ESE 4,5 32,2 0,0
03-08-2019 20,6     25,4     30,9 10,3 45 67 89 1.010 1.012 1.014 SE 6,1 32,2 0,0
02-08-2019 21,2     25,2     30,7 9,5 33 63 81 1.012 1.012 1.014 ESE 4,0 27,4 0,0
01-08-2019 20,4     24,4     29,4 9,0 50 70 89 1.009 1.011 1.014 SE 3,9 32,2 0,0
31-07-2019 21,4     23,6     27,0 5,6 55 75 90 1.012 1.014 1.016 NE 8,9 33,8 0,0
30-07-2019 21,4     25,0     29,2 7,8 52 71 88 1.008 1.011 1.014 ESE 8,2 33,8 0,0
29-07-2019 20,1     26,8     33,7 13,6 27 57 80 1.006 1.008 1.009 SE 9,2 35,4 0,0
28-07-2019 19,9     25,1     31,1 11,2 23 50 77 1.005 1.007 1.009 SSE 8,9 43,5 0,0
27-07-2019 21,4     27,7     34,6 13,2 18 39 83 1.000 1.003 1.007 W 15,8 54,7 0,0
26-07-2019 22,2     26,1     31,2 9,0 44 64 82 1.006 1.008 1.011 ESE 4,0 32,2 0,0
25-07-2019 22,8     27,4     33,4 10,6 32 52 73 1.010 1.012 1.013 ESE 5,5 35,4 0,0
24-07-2019 23,0     28,6     36,0 13,0 19 39 64 1.012 1.013 1.015 SE 5,3 35,4 0,0
Últims 13 mesos disponibles
07/2019 19,9 21,4 23,4 26,0 27,0 31,8 37,6 17,7 39 61 77 1.003 1.012 1.019 SE 6,8 54,7 9,4
06/2019 12,5 17,1 23,2 22,1 22,2 28,1 36,9 24,4 32 58 76 1.006 1.013 1.020 ESE 7,5 66,0 0,0
05/2019 8,2 13,4 18,4 17,9 18,0 23,5 31,8 23,6 45 63 87 1.003 1.013 1.022 N 7,2 61,2 14,0
04/2019 6,7 10,2 12,8 14,1 13,4 19,8 29,8 23,1 33 65 99 998 1.011 1.023 W 10,5 67,6 175,8
03/2019 6,4 9,6 13,7 14,1 10,9 20,5 29,1 22,7 31 52 91 1.008 1.021 1.028 N 8,0 66,0 28,2
02/2019 3,4 7,3 12,1 11,6 12,3 18,2 26,8 23,4 32 59 78 993 1.023 1.032 W 8,3 83,7 1,0
01/2019 1,6 6,3 10,4 10,4 12,0 16,4 21,4 19,8 35 52 71 1.000 1.017 1.029 W 11,9 80,5 0,2
12/2018 6,1 8,7 12,5 12,3 13,3 17,8 22,9 16,8 37 64 84 1.007 1.023 1.029 W 11,5 64,4 11,2
11/2018 6,2 10,3 14,4 13,2 12,3 17,3 23,9 17,7 46 73 99 1.000 1.014 1.022 W 10,8 70,8 182,4
10/2018 5,7 14,0 18,9 17,4 12,5 22,4 30,4 24,7 46 71 94 998 1.013 1.024 W 8,9 64,4 151,4
09/2018 15,9 19,5 22,1 22,9 22,1 27,6 31,3 15,4 51 76 89 1.010 1.017 1.027 ESE 7,1 41,8 108,0
08/2018 19,8 22,1 25,3 26,2 27,2 31,9 37,6 17,8 45 65 78 1.010 1.014 1.019 SSE 8,2 64,4 16,2
07/2018 20,1 21,4 22,9 26,1 27,9 31,6 38,0 17,9 ESE 8,3 53,1 1,0
Tots els anys disponibles
2018 1,1 13,5 25,3 17,4 7,4 22,8 38,0 36,9 37 70 99 998 1.016 1.029 W 10,2 86,9 734,0
2017 -0,7 13,5 25,3 17,6 6,6 23,1 38,0 38,7 9,1 85,3 336,2
2016 1,8 13,8 27,1 17,7 9,6 22,9 39,6 37,8 9,8 83,7 541,0
2015 0,7 13,6 21,1 17,6 21,0 22,9 41,8 41,1 6,2 83,7 468,4
2014 1,3 13,8 23,5 17,8 8,8 23,2 41,1 39,8 7,6 82,1 324,0
2013 1,2 12,9 16,8 16,8 18,7 22,2 36,1 34,9 8,4 78,9 337,8
2012 -2,3 13,0 18,1 17,1 21,4 22,5 37,2 39,5 7,2 82,1 431,2
2011 -1,1 13,5 22,8 17,1 6,6 22,2 39,0 40,1 8,4 83,7 426,0
2010 -1,8 12,4 26,2 16,3 3,7 21,4 42,0 43,8 9,2 109,4 559,4
2009 -2,2 13,2 23,7 17,1 4,6 22,5 41,7 43,9 9,7 99,8 807,4
2008 1,6 12,5 17,1 21,7 37,0 35,4 10,6 74,0 733,8
2007 2,1 13,0 17,4 21,7 37,6 35,5 42 67 88 1.027 1.027 1.027 2,3 37,0 698,8
2006 -3,2 13,4 17,8 22,2 35,6 38,8 48 70 97 3,1 45,0 531,7
2005 -4,9 12,1 16,6 21,1 36,5 41,4 357,2
Temperatura (°C)
Humitat relativa (%)
Velocitat del vent i ràfega màxima (km/h)
Direcció del vent (°)
Pressió (hPa)
Precipitació (mm)
Nota sobre les dades: s'avisa a l'usuari de la provisionalitat i no oficialitat d'aquestes dades
Logo AVAMET blanc
Web allotjada a Sollutia
Llicència de Creative CommonsLa web d'AVAMET i els seus continguts estan subjectes a una llicència de
Reconeixement - No Comercial - Compartir igual
Properes estacions: Altea - Club Nàutic d'Altea (Soci), Ares del Maestrat (Ajuntament Soci),      - - - - -      Últimes estacions: Catadau - Urb. Lloma Molina (Inforatge), Ontinyent - El Pilar (Soci) - - -